createdAt,value
2022-11-02T00:01:51.276Z,95475.91
2022-11-02T00:04:37.936Z,95475.88
2022-11-02T00:07:11.019Z,95474.22
2022-11-02T00:09:57.930Z,95475.06
2022-11-02T00:12:37.926Z,95470.78
2022-11-02T00:15:31.953Z,95477.59
2022-11-02T00:18:20.950Z,95477.63
2022-11-02T00:21:00.942Z,95473.38
2022-11-02T00:23:47.930Z,95477.63
2022-11-02T00:26:22.071Z,95473.41
2022-11-02T00:29:10.950Z,95476.81
2022-11-02T00:31:50.939Z,95477.69
2022-11-02T00:34:44.957Z,95470.03
2022-11-02T00:37:38.954Z,95475.16
2022-11-02T00:40:32.970Z,95473.44
2022-11-02T00:43:19.969Z,95473.44
2022-11-02T00:45:53.066Z,95476.03
2022-11-02T00:48:39.963Z,95475.16
2022-11-02T00:51:19.939Z,95471.75
2022-11-02T00:54:13.974Z,95470.91
2022-11-02T00:59:39.093Z,95477.72
2022-11-02T01:02:26.040Z,95473.44
2022-11-02T01:04:59.035Z,95473.44
2022-11-02T01:07:45.967Z,95470.06
2022-11-02T01:10:19.095Z,95470.06
2022-11-02T01:13:06.969Z,95465.78
2022-11-02T01:15:40.038Z,95475.13
2022-11-02T01:18:26.973Z,95463.22
2022-11-02T01:21:04.075Z,95456.41
2022-11-02T01:23:50.975Z,95457.22
2022-11-02T01:26:25.057Z,95450.41
2022-11-02T01:29:11.976Z,95444.44
2022-11-02T01:31:45.078Z,95443.59
2022-11-02T01:34:31.978Z,95442.72
2022-11-02T01:37:05.043Z,95441.88
2022-11-02T01:39:52.005Z,95438.50
2022-11-02T01:42:37.981Z,95434.25
2022-11-02T01:45:19.991Z,95424.91
2022-11-02T01:47:59.976Z,95424.03
2022-11-02T01:50:34.034Z,95426.63
2022-11-02T01:53:20.983Z,95424.91
2022-11-02T01:55:54.094Z,95422.38
2022-11-02T01:58:42.012Z,95417.28
2022-11-02T02:01:16.190Z,95430.06
2022-11-02T02:04:03.999Z,95430.06
2022-11-02T02:06:37.104Z,95438.56
2022-11-02T02:09:25.984Z,95445.34
2022-11-02T02:12:06.005Z,95444.50
2022-11-02T02:14:52.988Z,95446.22
2022-11-02T02:17:42.023Z,95460.69
2022-11-02T02:21:11.001Z,95448.75
2022-11-02T02:24:01.013Z,95451.34
2022-11-02T02:26:56.081Z,95451.34
2022-11-02T02:30:14.031Z,95455.59
2022-11-02T02:33:07.993Z,95449.66
2022-11-02T02:36:06.990Z,95443.72
2022-11-02T02:38:56.018Z,95452.22
2022-11-02T02:41:48.994Z,95442.84
2022-11-02T02:44:29.093Z,95441.13
2022-11-02T02:47:22.997Z,95446.25
2022-11-02T02:50:10.033Z,95443.69
2022-11-02T02:52:59.014Z,95442.84
2022-11-02T02:55:46.003Z,95444.53
2022-11-02T02:58:38.019Z,95450.47
2022-11-02T03:01:13.250Z,95453.88
2022-11-02T03:04:00.036Z,95462.38
2022-11-02T03:06:45.039Z,95453.84
2022-11-02T03:09:50.027Z,95458.94
2022-11-02T03:13:10.167Z,95474.25
2022-11-02T03:16:15.061Z,95476.81
2022-11-02T03:19:18.027Z,95481.94
2022-11-02T03:21:54.116Z,95476.81
2022-11-02T03:24:50.030Z,95482.75
2022-11-02T03:27:52.026Z,95492.13
2022-11-02T03:30:53.034Z,95485.34
2022-11-02T03:33:45.028Z,95490.44
2022-11-02T03:36:33.060Z,95483.66
2022-11-02T03:39:31.034Z,95481.09
2022-11-02T03:42:24.044Z,95479.41
2022-11-02T03:45:07.121Z,95482.81
2022-11-02T03:47:59.017Z,95481.09
2022-11-02T03:50:39.057Z,95484.50
2022-11-02T03:53:41.028Z,95480.25
2022-11-02T03:56:33.058Z,95473.44
2022-11-02T03:59:13.046Z,95487.06
2022-11-02T04:02:07.168Z,95489.59
2022-11-02T04:05:09.039Z,95481.94
2022-11-02T04:08:25.051Z,95487.91
2022-11-02T04:11:38.052Z,95490.44
2022-11-02T04:14:47.059Z,95480.25
2022-11-02T04:17:52.038Z,95490.44
2022-11-02T04:20:32.040Z,95493.00
2022-11-02T04:23:37.056Z,95490.41
2022-11-02T04:26:18.046Z,95487.03
2022-11-02T04:29:05.057Z,95491.28
2022-11-02T04:31:45.049Z,95489.59
2022-11-02T04:34:39.058Z,95491.28
2022-11-02T04:37:44.047Z,95502.34
2022-11-02T04:40:18.140Z,95500.66
2022-11-02T04:43:05.066Z,95498.09
2022-11-02T04:45:38.110Z,95506.63
2022-11-02T04:48:25.070Z,95506.63
2022-11-02T04:50:58.135Z,95503.25
2022-11-02T04:53:45.076Z,95504.09
2022-11-02T04:56:18.129Z,95509.22
2022-11-02T04:59:07.052Z,95506.69
2022-11-02T05:01:47.134Z,95508.41
2022-11-02T05:04:41.231Z,95510.97
2022-11-02T05:07:35.098Z,95508.44
2022-11-02T05:10:29.063Z,95509.31
2022-11-02T05:13:17.092Z,95513.56
2022-11-02T05:15:50.236Z,95521.19
2022-11-02T05:18:37.062Z,95516.97
2022-11-02T05:21:17.078Z,95522.94
2022-11-02T05:24:04.075Z,95527.22
2022-11-02T05:26:37.153Z,95524.63
2022-11-02T05:29:24.072Z,95528.06
2022-11-02T05:32:04.073Z,95526.34
2022-11-02T05:34:58.086Z,95537.41
2022-11-02T05:37:52.075Z,95545.06
2022-11-02T05:40:40.111Z,95545.94
2022-11-02T05:43:16.657Z,95552.72
2022-11-02T05:46:09.099Z,95550.19
2022-11-02T05:48:49.087Z,95558.69
2022-11-02T05:51:43.076Z,95551.03
2022-11-02T05:54:37.099Z,95557.81
2022-11-02T05:57:25.089Z,95559.53
2022-11-02T06:00:05.105Z,95566.31
2022-11-02T06:02:52.088Z,95564.63
2022-11-02T06:05:35.266Z,95580.78
2022-11-02T06:08:29.115Z,95579.94
2022-11-02T06:11:18.121Z,95576.53
2022-11-02T06:13:51.174Z,95585.88
2022-11-02T06:16:38.088Z,95585.88
2022-11-02T06:22:06.104Z,95577.34
2022-11-02T06:24:39.184Z,95574.81
2022-11-02T06:27:27.106Z,95575.66
2022-11-02T06:30:00.250Z,95580.72
2022-11-02T06:32:47.117Z,95584.13
2022-11-02T06:35:27.106Z,95579.03
2022-11-02T06:38:21.161Z,95588.38
2022-11-02T06:41:11.140Z,95589.22
2022-11-02T06:43:51.089Z,95594.31
2022-11-02T06:46:45.113Z,95585.78
2022-11-02T06:49:32.108Z,95587.47
2022-11-02T06:52:05.210Z,95578.94
2022-11-02T06:54:52.132Z,95586.59
2022-11-02T06:57:26.201Z,95585.72
2022-11-02T07:00:18.082Z,95577.19
2022-11-02T07:03:13.110Z,95582.28
2022-11-02T07:06:00.124Z,95579.72
2022-11-02T07:08:34.178Z,95580.56
2022-11-02T07:11:22.137Z,95576.31
2022-11-02T07:14:03.133Z,95575.41
2022-11-02T07:16:57.136Z,95570.31
2022-11-02T07:19:44.137Z,95560.88
2022-11-02T07:22:24.109Z,95562.53
2022-11-02T07:25:18.142Z,95559.09
2022-11-02T07:28:09.118Z,95556.50
2022-11-02T07:30:42.227Z,95554.78
2022-11-02T07:33:29.132Z,95556.44
2022-11-02T07:36:09.158Z,95552.97
2022-11-02T07:38:56.130Z,95552.94
2022-11-02T07:41:29.254Z,95560.53
2022-11-02T07:44:16.152Z,95564.75
2022-11-02T07:46:56.145Z,95563.84
2022-11-02T07:49:50.156Z,95567.19
2022-11-02T07:52:37.143Z,95560.28
2022-11-02T07:55:10.218Z,95566.94
2022-11-02T07:58:08.160Z,95563.41
2022-11-02T08:00:50.144Z,95566.75
2022-11-02T08:03:37.154Z,95553.00
2022-11-02T08:06:17.157Z,95561.41
2022-11-02T08:09:11.162Z,95551.84
2022-11-02T08:11:58.110Z,95558.47
2022-11-02T08:14:31.258Z,95554.00
2022-11-02T08:17:18.154Z,95555.53
2022-11-02T08:19:51.214Z,95547.69
2022-11-02T08:22:38.167Z,95539.88
2022-11-02T08:25:12.282Z,95539.59
2022-11-02T08:28:02.279Z,95546.16
2022-11-02T08:30:37.235Z,95544.28
2022-11-02T08:33:25.162Z,95538.94
2022-11-02T08:35:58.248Z,95538.75
2022-11-02T08:38:46.150Z,95538.56
2022-11-02T08:41:26.184Z,95532.44
2022-11-02T08:44:20.164Z,95537.41
2022-11-02T08:47:09.426Z,95543.13
2022-11-02T08:49:43.267Z,95534.41
2022-11-02T08:52:30.171Z,95537.72
2022-11-02T08:55:03.260Z,95535.88
2022-11-02T08:57:57.190Z,95538.34
2022-11-02T09:00:36.264Z,95530.53
2022-11-02T09:03:26.508Z,95529.50
2022-11-02T09:06:07.245Z,95528.31
2022-11-02T09:08:57.884Z,95525.53
2022-11-02T09:11:39.188Z,95522.72
2022-11-02T09:14:33.201Z,95522.56
2022-11-02T09:17:20.205Z,95524.16
2022-11-02T09:19:53.334Z,95520.56
2022-11-02T09:22:40.198Z,95524.81
2022-11-02T09:25:14.255Z,95514.28
2022-11-02T09:28:03.200Z,95516.59
2022-11-02T09:30:36.276Z,95509.47
2022-11-02T09:33:23.230Z,95508.47
2022-11-02T09:35:56.413Z,95506.66
2022-11-02T09:38:43.193Z,95506.56
2022-11-02T09:42:04.202Z,95503.19
2022-11-02T09:45:05.187Z,95499.66
2022-11-02T09:51:08.210Z,95494.81
2022-11-02T09:53:53.202Z,95498.06
2022-11-02T09:56:33.220Z,95492.66
2022-11-02T09:59:32.221Z,95490.75
2022-11-02T10:02:47.274Z,95490.53
2022-11-02T10:05:23.278Z,95490.31
2022-11-02T10:08:51.202Z,95488.38
2022-11-02T10:11:41.237Z,95484.66
2022-11-02T10:14:32.209Z,95489.69
2022-11-02T10:17:28.215Z,95482.75
2022-11-02T10:20:09.343Z,95489.44
2022-11-02T10:22:56.221Z,95486.78
2022-11-02T10:25:30.369Z,95480.72
2022-11-02T10:28:24.288Z,95478.19
2022-11-02T10:31:06.206Z,95488.56
2022-11-02T10:34:00.229Z,95484.53
2022-11-02T10:36:54.212Z,95483.94
2022-11-02T10:39:27.288Z,95485.72
2022-11-02T10:42:29.223Z,95475.44
2022-11-02T10:45:30.344Z,95475.38
2022-11-02T10:49:00.222Z,95476.09
2022-11-02T10:51:35.319Z,95468.22
2022-11-02T10:54:29.316Z,95478.41
2022-11-02T10:57:25.237Z,95461.94
2022-11-02T11:00:51.246Z,95465.25
2022-11-02T11:03:38.227Z,95463.41
2022-11-02T11:06:11.323Z,95470.19
2022-11-02T11:09:05.248Z,95476.16
2022-11-02T11:12:19.256Z,95469.97
2022-11-02T11:21:46.244Z,95470.72
2022-11-02T11:24:35.363Z,95474.28
2022-11-02T11:27:31.243Z,95478.59
2022-11-02T11:30:59.107Z,95471.72
2022-11-02T11:33:35.266Z,95474.34
2022-11-02T11:36:42.236Z,95477.06
2022-11-02T11:39:44.252Z,95473.63
2022-11-02T11:42:35.284Z,95465.91
2022-11-02T11:45:20.292Z,95472.75
2022-11-02T11:48:23.254Z,95465.09
2022-11-02T11:51:13.263Z,95461.81
2022-11-02T11:53:46.390Z,95473.13
2022-11-02T11:56:33.320Z,95471.47
2022-11-02T11:59:06.358Z,95467.16
2022-11-02T12:01:53.323Z,95474.06
2022-11-02T12:04:40.762Z,95477.47
2022-11-02T12:08:15.263Z,95468.16
2022-11-02T12:11:19.181Z,95463.97
2022-11-02T12:13:59.259Z,95457.03
2022-11-02T12:17:17.293Z,95452.75
2022-11-02T12:20:28.289Z,95461.28
2022-11-02T12:23:07.684Z,95453.59
2022-11-02T12:25:54.286Z,95463.91
2022-11-02T12:28:39.342Z,95455.41
2022-11-02T12:31:48.285Z,95468.38
2022-11-02T12:35:34.545Z,95458.88
2022-11-02T12:38:30.283Z,95466.72
2022-11-02T12:41:21.272Z,95451.25
2022-11-02T12:43:57.370Z,95450.56
2022-11-02T12:47:02.283Z,95453.31
2022-11-02T12:50:15.311Z,95452.56
2022-11-02T12:53:27.282Z,95455.13
2022-11-02T12:56:11.298Z,95455.19
2022-11-02T12:59:05.286Z,95461.13
2022-11-02T13:01:59.431Z,95458.41
2022-11-02T13:04:39.808Z,95455.84
2022-11-02T13:07:41.291Z,95461.81
2022-11-02T13:10:41.320Z,95470.38
2022-11-02T13:13:44.310Z,95467.78
2022-11-02T13:16:41.322Z,95467.75
2022-11-02T13:19:25.373Z,95473.63
2022-11-02T13:22:15.324Z,95464.94
2022-11-02T13:24:59.384Z,95463.22
2022-11-02T13:28:05.956Z,95467.53
2022-11-02T13:30:43.379Z,95471.00
2022-11-02T13:33:44.316Z,95465.88
2022-11-02T13:36:18.401Z,95471.84
2022-11-02T13:39:11.320Z,95480.44
2022-11-02T13:42:16.321Z,95475.28
2022-11-02T13:45:39.322Z,95475.34
2022-11-02T13:48:45.344Z,95471.09
2022-11-02T13:51:30.431Z,95472.91
2022-11-02T13:54:26.338Z,95479.78
2022-11-02T13:57:11.328Z,95479.78
2022-11-02T14:00:05.349Z,95481.53
2022-11-02T14:02:52.412Z,95479.03
2022-11-02T14:05:47.340Z,95477.41
2022-11-02T14:08:49.350Z,95476.59
2022-11-02T14:11:55.313Z,95484.41
2022-11-02T14:14:49.330Z,95474.28
2022-11-02T14:17:36.342Z,95481.28
2022-11-02T14:20:10.848Z,95481.41
2022-11-02T14:23:21.334Z,95481.56
2022-11-02T14:26:05.572Z,95485.19
2022-11-02T14:28:52.343Z,95486.16
2022-11-02T14:31:39.342Z,95493.19
2022-11-02T14:34:50.482Z,95490.78
2022-11-02T14:37:52.329Z,95489.22
2022-11-02T14:41:09.366Z,95499.75
2022-11-02T14:44:12.350Z,95501.66
2022-11-02T14:47:12.347Z,95497.66
2022-11-02T14:50:03.347Z,95498.84
2022-11-02T14:52:41.478Z,95500.81
2022-11-02T14:55:35.358Z,95506.25
2022-11-02T14:58:12.411Z,95503.06
2022-11-02T15:00:59.493Z,95506.69
2022-11-02T15:03:32.428Z,95506.00
2022-11-02T15:06:25.376Z,95510.41
2022-11-02T15:09:05.477Z,95518.22
2022-11-02T15:11:57.375Z,95519.25
2022-11-02T15:14:42.621Z,95527.94
2022-11-02T15:17:29.364Z,95528.13
2022-11-02T15:20:12.372Z,95526.50
2022-11-02T15:23:09.331Z,95531.81
2022-11-02T15:25:55.671Z,95530.28
2022-11-02T15:28:42.378Z,95531.28
2022-11-02T15:31:26.405Z,95533.19
2022-11-02T15:34:24.380Z,95546.13
2022-11-02T15:36:57.484Z,95543.75
2022-11-02T15:39:44.394Z,95537.88
2022-11-02T15:42:26.454Z,95532.06
2022-11-02T15:45:34.072Z,95539.03
2022-11-02T15:48:21.482Z,95542.56
2022-11-02T15:51:43.386Z,95545.19
2022-11-02T15:54:19.489Z,95541.09
2022-11-02T15:57:25.400Z,95550.59
2022-11-02T16:00:36.619Z,95550.72
2022-11-02T16:03:24.389Z,95550.81
2022-11-02T16:06:00.424Z,95549.19
2022-11-02T16:08:57.387Z,95544.19
2022-11-02T16:11:44.391Z,95553.69
2022-11-02T16:14:31.387Z,95556.34
2022-11-02T16:17:52.418Z,95555.66
2022-11-02T16:20:43.393Z,95552.41
2022-11-02T16:23:35.421Z,95550.81
2022-11-02T16:26:35.411Z,95551.78
2022-11-02T16:29:34.385Z,95548.50
2022-11-02T16:32:14.422Z,95560.47
2022-11-02T16:35:08.409Z,95561.41
2022-11-02T16:38:03.630Z,95558.06
2022-11-02T16:40:58.400Z,95564.97
2022-11-02T16:43:57.413Z,95558.19
2022-11-02T16:47:07.407Z,95560.00
2022-11-02T16:50:01.576Z,95561.72
2022-11-02T16:52:48.425Z,95571.97
2022-11-02T16:55:57.480Z,95575.47
2022-11-02T16:58:44.421Z,95573.81
2022-11-02T17:01:34.576Z,95584.09
2022-11-02T17:04:22.800Z,95593.53
2022-11-02T17:07:06.412Z,95591.00
2022-11-02T17:10:06.440Z,95595.28
2022-11-02T17:12:55.435Z,95589.38
2022-11-02T17:15:34.350Z,95585.19
2022-11-02T17:18:27.483Z,95591.22
2022-11-02T17:21:18.553Z,95589.59
2022-11-02T17:24:06.461Z,95595.59
2022-11-02T17:26:43.514Z,95594.78
2022-11-02T17:29:32.426Z,95605.91
2022-11-02T17:32:07.310Z,95613.56
2022-11-02T17:34:56.432Z,95614.44
2022-11-02T17:37:38.542Z,95616.22
2022-11-02T17:40:26.414Z,95611.16
2022-11-02T17:43:00.940Z,95611.16
2022-11-02T17:45:47.487Z,95609.47
2022-11-02T17:48:27.484Z,95609.50
2022-11-02T17:51:23.483Z,95611.22
2022-11-02T17:54:10.417Z,95618.03
2022-11-02T17:56:44.651Z,95612.94
2022-11-02T17:59:31.484Z,95616.38
2022-11-02T18:02:04.692Z,95618.06
2022-11-02T18:04:53.483Z,95619.78
2022-11-02T18:07:26.542Z,95612.13
2022-11-02T18:10:13.587Z,95618.97
2022-11-02T18:12:46.595Z,95620.66
2022-11-02T18:15:36.514Z,95617.28
2022-11-02T18:18:09.616Z,95619.81
2022-11-02T18:20:56.509Z,95630.03
2022-11-02T18:23:31.394Z,95624.94
2022-11-02T18:26:19.488Z,95628.34
2022-11-02T18:28:52.558Z,95627.50
2022-11-02T18:31:41.491Z,95626.66
2022-11-02T18:34:15.577Z,95630.91
2022-11-02T18:37:02.449Z,95636.03
2022-11-02T18:39:37.400Z,95632.59
2022-11-02T18:42:24.507Z,95640.25
2022-11-02T18:44:58.390Z,95631.78
2022-11-02T18:47:45.482Z,95636.03
2022-11-02T18:50:20.570Z,95640.25
2022-11-02T18:53:10.523Z,95645.38
2022-11-02T18:55:47.303Z,95643.69
2022-11-02T18:58:27.490Z,95642.81
2022-11-02T19:01:33.583Z,95642.00
2022-11-02T19:04:27.486Z,95637.75
2022-11-02T19:07:32.513Z,95638.59
2022-11-02T19:10:26.509Z,95640.28
2022-11-02T19:13:14.517Z,95634.31
2022-11-02T19:15:54.506Z,95644.53
2022-11-02T19:18:48.514Z,95642.84
2022-11-02T19:21:35.487Z,95647.94
2022-11-02T19:24:17.488Z,95652.19
2022-11-02T19:27:11.488Z,95658.13
2022-11-02T19:29:59.514Z,95664.94
2022-11-02T19:32:32.599Z,95659.81
2022-11-02T19:35:19.497Z,95664.94
2022-11-02T19:37:55.579Z,95653.03
2022-11-02T19:40:42.512Z,95664.94
2022-11-02T19:43:15.580Z,95667.50
2022-11-02T19:46:07.490Z,95682.78
2022-11-02T19:48:41.617Z,95685.34
2022-11-02T19:51:36.527Z,95687.00
2022-11-02T19:54:10.602Z,95684.47
2022-11-02T19:56:57.493Z,95689.56
2022-11-02T19:59:30.612Z,95693.81
2022-11-02T20:02:17.549Z,95696.38
2022-11-02T20:04:51.624Z,95692.09
2022-11-02T20:07:41.491Z,95692.13
2022-11-02T20:10:35.508Z,95701.47
2022-11-02T20:13:25.488Z,95689.56
2022-11-02T20:16:02.609Z,95686.16
2022-11-02T20:18:51.518Z,95692.94
2022-11-02T20:21:38.229Z,95687.00
2022-11-02T20:24:36.556Z,95690.41
2022-11-02T20:27:23.646Z,95697.19
2022-11-02T20:29:56.617Z,95692.94
2022-11-02T20:32:45.501Z,95691.25
2022-11-02T20:35:29.510Z,95695.50
2022-11-02T20:38:16.563Z,95702.28
2022-11-02T20:40:56.551Z,95706.53
2022-11-02T20:43:51.513Z,95695.50
2022-11-02T20:46:41.430Z,95701.41
2022-11-02T20:49:21.763Z,95697.19
2022-11-02T20:52:10.654Z,95694.63
2022-11-02T20:54:43.683Z,95698.00
2022-11-02T20:57:30.570Z,95706.50
2022-11-02T21:00:10.569Z,95699.69
2022-11-02T21:03:07.815Z,95699.69
2022-11-02T21:05:55.520Z,95708.19
2022-11-02T21:11:48.565Z,95715.00
2022-11-02T21:14:35.526Z,95715.84
2022-11-02T21:17:08.636Z,95716.69
2022-11-02T21:20:02.887Z,95715.00
2022-11-02T21:22:43.291Z,95708.19
2022-11-02T21:25:31.408Z,95724.34
2022-11-02T21:28:04.718Z,95722.66
2022-11-02T21:30:51.621Z,95715.84
2022-11-02T21:33:32.654Z,95710.75
2022-11-02T21:36:27.581Z,95723.47
2022-11-02T21:39:14.558Z,95737.06
2022-11-02T21:41:48.192Z,95740.44
2022-11-02T21:44:34.548Z,95741.28
2022-11-02T21:47:08.830Z,95740.44
2022-11-02T21:49:58.567Z,95736.19
2022-11-02T21:52:31.634Z,95726.84
2022-11-02T21:55:18.559Z,95733.63
2022-11-02T21:57:58.604Z,95732.75
2022-11-02T22:01:10.710Z,95734.47
2022-11-02T22:04:05.586Z,95736.13
2022-11-02T22:06:59.587Z,95734.41
2022-11-02T22:09:53.585Z,95734.38
2022-11-02T22:12:58.554Z,95724.16
2022-11-02T22:15:38.700Z,95727.53
2022-11-02T22:18:32.600Z,95731.75
2022-11-02T22:21:25.591Z,95730.06
2022-11-02T22:23:58.693Z,95734.28
2022-11-02T22:26:46.564Z,95735.06
2022-11-02T22:29:19.686Z,95733.34
2022-11-02T22:31:59.590Z,95734.19
2022-11-02T22:34:45.423Z,95740.94
2022-11-02T22:37:43.585Z,95746.00
2022-11-02T22:40:26.138Z,95749.34
2022-11-02T22:43:05.887Z,95745.09
2022-11-02T22:45:47.931Z,95737.41
2022-11-02T22:48:27.583Z,95743.31
2022-11-02T22:51:08.399Z,95740.78
2022-11-02T22:53:48.593Z,95740.75
2022-11-02T22:56:37.592Z,95745.00
2022-11-02T22:59:24.594Z,95747.50
2022-11-02T23:02:05.626Z,95744.94
2022-11-02T23:05:03.587Z,95735.59
2022-11-02T23:07:58.610Z,95744.13
2022-11-02T23:11:13.670Z,95745.81
2022-11-02T23:14:06.637Z,95738.19
2022-11-02T23:16:47.714Z,95734.78
2022-11-02T23:19:37.588Z,95735.59
2022-11-02T23:22:31.499Z,95746.63
2022-11-02T23:25:19.598Z,95744.91
2022-11-02T23:28:25.730Z,95746.63
2022-11-02T23:31:31.605Z,95750.91
2022-11-02T23:34:04.696Z,95750.06
2022-11-02T23:36:53.639Z,95744.94
2022-11-02T23:39:45.676Z,95745.78
2022-11-02T23:42:33.632Z,95739.88
2022-11-02T23:45:15.585Z,95748.34
2022-11-02T23:48:09.681Z,95746.66
2022-11-02T23:51:15.586Z,95751.72
2022-11-02T23:54:07.416Z,95747.47
2022-11-02T23:56:54.626Z,95757.59
2022-11-02T23:59:27.757Z,95758.41
